メインページ
METAR-TAF:

METAR-TAF

空港 :

ラルナカ国際空港

ラルナカ, キプロス

緯度: 34-53N, 経度: 033-38E, 海抜: 2m

現時点の気象観測

当レポートは20分前の10:30(UTC)に作成
南/南東の風 6kt、からの間で変化する
気温 28°C
湿度 70%
気圧 1012 hPa
視程10km以上
1,500メートル以下は雲なし、積乱雲なし

METAR: LCLK 211030Z 15006KT 100V170 CAVOK 28/22 Q1012 NOSIG

時間: 13:50 (10:50 UTC)

予報

当レポートは5時間20分前の05:30(UTC)に作成
予報は21日の 06時(UTC)から 22日の 06時(UTC)まで有効
南/南東の風 8kt
視程10km以上
1,500メートル以下は雲なし、積乱雲なし
21日の 09時(UTC)から 21日の 12時(UTC)まで徐々に
南西の風 14kt
21日の 16時(UTC)から 21日の 20時(UTC)まで徐々に
北西の風 7kt

TAF: LCLK 210530Z 2106/2206 16008KT CAVOK BECMG 2109/2112 22014KT BECMG 2116/2120 32007KT

4,000以上の空港の気象観測と天気予報(METAR報とTAF報)

利用可能な観測所は地図上に黄色い丸と赤い丸で示す。

丸の上にカーソルを重ねると観測所名を参照できる。

次にクリックすると気象観測と天気予報を参照できる。

マップの切り替え:黒色「×」印の緑ボタンをクリックして拡大、「-」印の緑ボタンをクリックして縮小、緑色の三角印をクリックして隣りの地図に切り替え


METAR-TAF: